CheckWX is a tool to help pilots better visualize weather data.  It is not intended as a substitute for an official pre-flight weather briefing.

03:18:14 UTC

KDEQ METAR
J Lynn Helms Sevier County Airport
De Queen, Arkansas, USA
Current

25 mins ago

KDEQ 160253Z AUTO 00000KT 3SM BR OVC016 11/09 A2986 RMK AO2 SLP108 T01060094 51014
Observed
Dec-16 @ 02:53 UTC
Visibility
3 SM
Flight Rules
MVFR
Conditions
Mist
Cloud Levels
  • Overcast at 1,600' AGL
Temperature
11°C / 52°F
Dewpoint
C / 48°F
Humidity
88%
Altimeter
29.86" Hg
Pressure
1011.22 hPa
Previous

1 hour ago

KDEQ 160213Z AUTO 00000KT 4SM BR OVC015 11/09 A2985 RMK AO2 T01110094
Observed
Dec-16 @ 02:13 UTC
Visibility
4 SM
Flight Rules
MVFR
Conditions
Mist
Cloud Levels
  • Overcast at 1,500' AGL
Temperature
11°C / 52°F
Dewpoint
C / 48°F
Humidity
88%
Altimeter
29.85" Hg
Pressure
1010.82 hPa
Previous

1 hour ago

KDEQ 160153Z AUTO 00000KT 4SM BR OVC013 11/10 A2985 RMK AO2 SLP108 T01110100
Observed
Dec-16 @ 01:53 UTC
Visibility
4 SM
Flight Rules
MVFR
Conditions
Mist
Cloud Levels
  • Overcast at 1,300' AGL
Temperature
11°C / 52°F
Dewpoint
10°C / 50°F
Humidity
94%
Altimeter
29.85" Hg
Pressure
1010.82 hPa